Time;durP1;ratioP1;P1;durP2;ratioP2;P2;SDS_P1;SDS_P2;PMS_P1;PMS_P2;Temp;Humidity;BMP_temperature;BMP_pressure;BME280_temperature;BME280_humidity;BME280_pressure;Samples;Min_cycle;Max_cycle;Signal;HPM_P1;HPM_P2
2023/04/03 00:02:08;;;;;;;4.47;3.17;;;;;;;10.00;100.00;100170.19;6216190;23;20009;-84
2023/04/03 00:04:33;;;;;;;5.53;2.85;;;;;;;9.93;100.00;100168.34;6190790;23;20331;-85
2023/04/03 00:06:59;;;;;;;3.72;2.53;;;;;;;9.81;100.00;100170.50;6190039;23;20447;-83
2023/04/03 00:09:24;;;;;;;3.75;2.50;;;;;;;9.76;100.00;100168.38;6190643;23;20016;-84
2023/04/03 00:11:50;;;;;;;4.88;2.58;;;;;;;9.73;100.00;100163.41;6190474;23;20294;-84
2023/04/03 00:14:15;;;;;;;5.35;2.38;;;;;;;9.84;100.00;100165.69;6216481;23;20023;-86
2023/04/03 00:16:41;;;;;;;3.30;2.35;;;;;;;9.98;100.00;100161.56;6197400;23;20088;-84
2023/04/03 00:19:07;;;;;;;6.40;2.65;;;;;;;10.02;100.00;100159.41;6227221;23;20473;-85
2023/04/03 00:21:32;;;;;;;4.45;2.42;;;;;;;9.92;100.00;100161.41;6222238;23;20347;-84
2023/04/03 00:23:57;;;;;;;3.40;2.17;;;;;;;9.76;100.00;100165.72;6222353;23;20075;-84
2023/04/03 00:26:23;;;;;;;6.28;2.35;;;;;;;9.51;100.00;100171.97;6198879;23;20017;-85
2023/04/03 00:28:49;;;;;;;4.53;2.20;;;;;;;9.47;100.00;100170.66;6225940;23;20019;-84
2023/04/03 00:31:17;;;;;;;2.85;1.90;;;;;;;9.78;100.00;100166.38;6200631;23;20008;-85
2023/04/03 00:33:43;;;;;;;5.28;2.30;;;;;;;9.77;100.00;100169.19;6220000;23;20435;-85
2023/04/03 00:36:10;;;;;;;4.40;2.25;;;;;;;10.05;99.04;100172.31;6190295;23;20012;-85
2023/04/03 00:38:35;;;;;;;3.28;2.17;;;;;;;10.16;97.95;100164.06;6216238;23;20012;-84
2023/04/03 00:41:02;;;;;;;3.53;2.28;;;;;;;10.34;96.64;100156.75;6189774;23;20012;-87
2023/04/03 00:43:30;;;;;;;5.63;2.45;;;;;;;10.04;97.79;100157.44;6215505;23;20029;-85
2023/04/03 00:45:58;;;;;;;5.60;2.55;;;;;;;9.93;99.92;100163.06;6190146;23;20044;-86
2023/04/03 00:48:31;;;;;;;3.13;2.15;;;;;;;9.61;100.00;100158.63;6216780;23;20011;-85
2023/04/03 00:50:59;;;;;;;3.33;2.03;;;;;;;9.49;100.00;100160.75;6217806;23;20119;-84
2023/04/03 00:53:30;;;;;;;3.60;2.03;;;;;;;9.32;100.00;100167.00;6220467;23;20012;-83
2023/04/03 00:55:58;;;;;;;8.97;2.70;;;;;;;9.22;100.00;100163.66;6219343;23;20013;-83
2023/04/03 00:58:33;;;;;;;4.15;1.90;;;;;;;9.18;100.00;100162.34;6189339;23;20009;-86
2023/04/03 01:01:00;;;;;;;4.95;2.20;;;;;;;9.17;100.00;100158.06;6164171;23;20382;-86
2023/04/03 01:03:25;;;;;;;3.42;2.20;;;;;;;9.19;100.00;100162.19;6216367;23;20034;-86
2023/04/03 01:05:52;;;;;;;5.68;2.53;;;;;;;9.27;100.00;100150.81;6192149;23;20023;-87
2023/04/03 01:08:18;;;;;;;3.20;2.13;;;;;;;9.18;100.00;100159.72;6217631;23;20006;-87
2023/04/03 01:10:44;;;;;;;5.32;2.58;;;;;;;9.24;100.00;100153.78;6218277;23;20012;-87
2023/04/03 01:13:40;;;;;;;6.28;2.60;;;;;;;9.14;100.00;100155.72;6189747;23;20069;-89
2023/04/03 01:16:10;;;;;;;3.30;2.30;;;;;;;9.34;100.00;100157.09;6100451;23;20017;-88
2023/04/03 01:18:38;;;;;;;4.65;2.40;;;;;;;9.29;100.00;100162.03;6101132;23;20013;-87
2023/04/03 01:21:42;;;;;;;6.35;2.50;;;;;;;9.27;100.00;100161.38;6126397;23;20014;-88
2023/04/03 01:24:12;;;;;;;;;;;;;;;9.27;100.00;100164.03;6150059;23;20014;-87
2023/04/03 01:26:39;;;;;;;7.97;2.88;;;;;;;9.40;100.00;100155.59;6100480;23;19912;-87
2023/04/03 01:29:04;;;;;;;6.13;2.90;;;;;;;9.47;100.00;100156.63;6149606;23;20006;-86
2023/04/03 01:31:59;;;;;;;3.97;2.88;;;;;;;9.56;100.00;100159.09;6100746;23;20054;-87
2023/04/03 01:34:27;;;;;;;5.35;3.10;;;;;;;9.74;100.00;100154.47;6217407;23;20458;-88
2023/04/03 01:36:53;;;;;;;6.82;2.83;;;;;;;9.94;100.00;100159.44;6217589;23;20474;-88
2023/04/03 01:39:20;;;;;;;4.35;2.58;;;;;;;10.07;100.00;100154.47;6195820;23;20000;-87
2023/04/03 01:41:46;;;;;;;3.55;2.47;;;;;;;9.82;100.00;100157.13;6173702;23;20043;-86
2023/04/03 01:44:18;;;;;;;;;;;;;;;9.43;100.00;100158.75;6201927;23;20016;-87
2023/04/03 01:46:44;;;;;;;5.63;3.58;;;;;;;9.38;100.00;100150.47;6200802;23;19912;-88
2023/04/03 01:49:10;;;;;;;5.30;2.95;;;;;;;9.58;100.00;100149.16;6190372;23;20046;-90
2023/04/03 01:51:35;;;;;;;10.38;3.55;;;;;;;9.77;100.00;100153.31;6166892;23;20039;-86
2023/04/03 01:54:02;;;;;;;7.82;3.30;;;;;;;9.75;100.00;100144.69;6217327;23;20008;-87
2023/04/03 01:56:27;;;;;;;5.40;3.28;;;;;;;9.94;100.00;100154.13;6217307;23;20398;-86
2023/04/03 01:58:53;;;;;;;5.82;3.58;;;;;;;9.67;100.00;100155.31;6190616;23;20023;-85
2023/04/03 02:01:19;;;;;;;7.90;3.95;;;;;;;9.27;100.00;100150.81;6189628;23;20328;-89
2023/04/03 02:03:44;;;;;;;7.78;3.63;;;;;;;8.97;100.00;100143.47;6215877;23;20058;-88
2023/04/03 02:06:10;;;;;;;6.50;3.40;;;;;;;8.89;100.00;100140.78;6217998;23;20012;-86
2023/04/03 02:08:35;;;;;;;9.38;3.28;;;;;;;9.18;100.00;100149.13;6190225;23;20004;-87
2023/04/03 02:11:01;;;;;;;5.95;3.20;;;;;;;9.26;100.00;100138.56;6216738;23;20009;-86
2023/04/03 02:13:26;;;;;;;7.50;3.08;;;;;;;9.09;100.00;100144.81;6216144;23;20055;-85
2023/04/03 02:15:52;;;;;;;7.03;3.45;;;;;;;9.01;100.00;100139.50;6215529;23;20015;-87
2023/04/03 02:18:17;;;;;;;6.13;2.78;;;;;;;9.05;100.00;100136.38;6215657;23;20606;-86
2023/04/03 02:20:43;;;;;;;5.28;2.75;;;;;;;9.13;100.00;100131.09;6189414;23;20036;-85
2023/04/03 02:23:10;;;;;;;3.95;2.30;;;;;;;9.10;100.00;100125.31;6190250;23;20009;-86
2023/04/03 02:25:35;;;;;;;6.28;2.58;;;;;;;9.16;100.00;100124.66;6190240;23;20108;-86
2023/04/03 02:28:01;;;;;;;6.40;2.40;;;;;;;9.17;100.00;100123.69;6216445;23;20374;-86
2023/04/03 02:30:27;;;;;;;4.40;2.60;;;;;;;9.30;100.00;100122.22;6189097;23;20004;-85
2023/04/03 02:32:52;;;;;;;3.00;2.30;;;;;;;9.42;100.00;100124.53;6189223;23;20083;-87
2023/04/03 02:35:18;;;;;;;3.35;2.13;;;;;;;9.34;100.00;100125.38;6189288;23;20031;-85
2023/04/03 02:37:44;;;;;;;3.65;2.40;;;;;;;9.54;100.00;100126.69;6164789;23;20017;-86
2023/04/03 02:40:13;;;;;;;3.63;2.17;;;;;;;9.25;100.00;100123.69;6188855;23;20079;-85
2023/04/03 02:42:38;;;;;;;6.13;2.45;;;;;;;9.27;100.00;100121.72;6215634;23;20059;-86
2023/04/03 02:45:05;;;;;;;4.03;2.22;;;;;;;9.45;100.00;100114.44;6215347;23;20008;-87
2023/04/03 02:47:31;;;;;;;4.07;2.55;;;;;;;9.51;100.00;100110.34;6191025;23;20008;-88
2023/04/03 02:49:57;;;;;;;8.48;2.72;;;;;;;9.52;100.00;100112.78;6218618;23;20359;-86
2023/04/03 02:52:22;;;;;;;3.00;2.55;;;;;;;9.46;99.56;100113.47;6193568;23;20060;-86
2023/04/03 02:54:50;;;;;;;8.63;2.33;;;;;;;9.11;100.00;100108.47;6200357;23;20383;-83
2023/04/03 02:57:17;;;;;;;6.35;2.67;;;;;;;8.94;100.00;100112.91;6223908;23;20018;-85
2023/04/03 02:59:43;;;;;;;4.78;2.35;;;;;;;8.84;100.00;100117.50;6191977;23;20044;-84
2023/04/03 03:02:10;;;;;;;4.40;2.20;;;;;;;8.87;100.00;100111.88;6192319;23;20335;-85
2023/04/03 03:04:36;;;;;;;4.25;2.20;;;;;;;9.01;100.00;100116.56;6192998;23;20008;-86
2023/04/03 03:07:02;;;;;;;3.70;2.28;;;;;;;8.96;100.00;100110.06;6220577;23;20019;-85
2023/04/03 03:09:29;;;;;;;5.45;2.70;;;;;;;8.99;100.00;100109.75;6217871;23;20005;-86
2023/04/03 03:11:55;;;;;;;4.93;2.40;;;;;;;8.75;100.00;100106.06;6217089;23;20020;-84
2023/04/03 03:14:21;;;;;;;4.80;2.50;;;;;;;8.71;100.00;100107.38;6190699;23;20012;-87
2023/04/03 03:16:47;;;;;;;4.95;2.40;;;;;;;8.96;100.00;100105.63;6190750;23;20008;-85
2023/04/03 03:19:12;;;;;;;6.40;2.65;;;;;;;9.07;100.00;100105.31;6217264;23;20470;-85
2023/04/03 03:21:38;;;;;;;4.07;2.42;;;;;;;9.13;100.00;100106.47;6165748;23;20013;-86
2023/04/03 03:24:04;;;;;;;6.22;2.50;;;;;;;9.36;100.00;100107.50;6216980;23;20012;-85
2023/04/03 03:26:30;;;;;;;7.75;3.00;;;;;;;9.37;100.00;100103.03;6190204;23;20046;-86
2023/04/03 03:28:55;;;;;;;4.03;2.58;;;;;;;9.13;100.00;100111.78;6216712;23;20016;-86
2023/04/03 03:31:21;;;;;;;6.68;2.63;;;;;;;8.99;100.00;100115.03;6190281;23;20039;-87
2023/04/03 03:33:47;;;;;;;4.03;2.92;;;;;;;8.90;100.00;100106.28;6217661;23;20004;-86
2023/04/03 03:36:13;;;;;;;7.47;2.88;;;;;;;8.85;100.00;100103.28;6191157;23;20005;-85
2023/04/03 03:38:38;;;;;;;6.25;3.25;;;;;;;8.75;100.00;100108.69;6190174;23;20086;-88
2023/04/03 03:41:04;;;;;;;4.97;3.40;;;;;;;8.82;100.00;100111.53;6190088;23;20009;-87
2023/04/03 03:43:32;;;;;;;4.47;2.83;;;;;;;8.81;100.00;100113.38;6189816;23;20008;-84
2023/04/03 03:45:58;;;;;;;5.65;3.00;;;;;;;8.70;100.00;100107.53;6165549;23;20086;-86
2023/04/03 03:48:25;;;;;;;6.85;2.75;;;;;;;8.68;100.00;100107.69;6165516;23;20103;-85
2023/04/03 03:50:50;;;;;;;4.25;3.03;;;;;;;8.74;100.00;100107.06;6190534;23;20043;-84
2023/04/03 03:53:19;;;;;;;7.68;3.10;;;;;;;8.55;100.00;100107.31;6190421;23;20015;-87
2023/04/03 03:55:45;;;;;;;8.52;3.10;;;;;;;8.39;100.00;100107.25;6217679;23;20043;-85
2023/04/03 03:58:10;;;;;;;5.95;2.90;;;;;;;8.21;100.00;100099.38;6165087;23;20042;-85
2023/04/03 04:00:36;;;;;;;6.88;3.00;;;;;;;8.08;100.00;100108.72;6190241;23;20054;-86
2023/04/03 04:03:02;;;;;;;6.00;3.60;;;;;;;8.16;100.00;100112.22;6190369;23;20316;-88
2023/04/03 04:05:31;;;;;;;9.38;3.10;;;;;;;8.39;100.00;100123.06;6218812;23;20091;-86
2023/04/03 04:07:58;;;;;;;7.07;3.53;;;;;;;8.58;100.00;100122.84;6221087;23;20035;-83
2023/04/03 04:10:24;;;;;;;5.75;3.13;;;;;;;8.67;100.00;100121.91;6201194;23;20008;-84
2023/04/03 04:12:51;;;;;;;7.05;3.10;;;;;;;8.58;100.00;100122.03;6202105;23;20394;-83
2023/04/03 04:15:21;;;;;;;5.68;3.17;;;;;;;8.60;100.00;100120.88;6219795;23;20431;-86
2023/04/03 04:17:47;;;;;;;8.45;3.33;;;;;;;8.44;100.00;100123.44;6191496;23;20016;-88
2023/04/03 04:20:13;;;;;;;9.18;3.80;;;;;;;8.39;100.00;100128.34;6217183;23;20044;-86
2023/04/03 04:22:39;;;;;;;8.07;3.72;;;;;;;8.24;100.00;100119.34;6192046;23;20005;-86
2023/04/03 04:25:06;;;;;;;9.65;5.05;;;;;;;8.06;100.00;100121.22;6218359;23;20012;-84
2023/04/03 04:27:32;;;;;;;7.93;4.47;;;;;;;7.98;100.00;100121.19;6191266;23;20416;-85
2023/04/03 04:29:57;;;;;;;7.32;4.35;;;;;;;7.92;100.00;100119.16;6216738;23;20019;-85
2023/04/03 04:32:23;;;;;;;11.20;4.65;;;;;;;7.95;100.00;100119.69;6217058;23;20028;-85
2023/04/03 04:34:49;;;;;;;9.38;4.15;;;;;;;8.07;100.00;100117.59;6190467;23;20513;-83
2023/04/03 04:37:15;;;;;;;6.60;4.00;;;;;;;7.95;100.00;100124.13;6190244;23;20004;-86
2023/04/03 04:39:41;;;;;;;7.22;4.15;;;;;;;7.78;100.00;100125.81;6190193;23;20443;-85
2023/04/03 04:42:08;;;;;;;5.78;3.88;;;;;;;8.01;100.00;100121.69;6190203;23;20005;-86
2023/04/03 04:44:34;;;;;;;7.57;3.90;;;;;;;8.11;100.00;100124.22;6190511;23;20470;-85
2023/04/03 04:47:00;;;;;;;5.10;3.63;;;;;;;8.05;100.00;100124.84;6165178;23;20044;-88
2023/04/03 04:49:26;;;;;;;8.68;3.63;;;;;;;8.13;100.00;100130.16;6189546;23;20035;-85
2023/04/03 04:51:52;;;;;;;7.22;3.55;;;;;;;8.25;100.00;100127.09;6192109;23;20018;-86
2023/04/03 04:54:23;;;;;;;9.82;3.63;;;;;;;8.11;100.00;100125.06;6191283;23;20049;-84
2023/04/03 04:56:49;;;;;;;7.82;3.88;;;;;;;8.23;100.00;100126.44;6194860;23;20036;-85
2023/04/03 04:59:15;;;;;;;5.97;3.70;;;;;;;8.22;100.00;100126.59;6194582;23;20012;-88
2023/04/03 05:01:41;;;;;;;10.35;4.55;;;;;;;8.28;100.00;100120.72;6193519;23;20008;-87
2023/04/03 05:04:15;;;;;;;8.88;4.18;;;;;;;7.98;100.00;100129.09;6197278;23;20008;-88
2023/04/03 05:06:42;;;;;;;13.02;4.95;;;;;;;7.91;100.00;100128.88;6208393;22;20023;-88
2023/04/03 05:09:16;;;;;;;14.82;4.55;;;;;;;7.84;100.00;100127.00;6231572;23;20012;-88
2023/04/03 05:11:46;;;;;;;13.68;4.07;;;;;;;7.94;100.00;100133.84;6180952;23;20059;-87
2023/04/03 05:14:14;;;;;;;11.85;4.32;;;;;;;8.08;100.00;100135.09;6206945;23;20016;-88
2023/04/03 05:16:47;;;;;;;8.70;4.00;;;;;;;8.48;100.00;100143.28;6209323;23;20017;-90
2023/04/03 05:19:13;;;;;;;;;;;;;;;8.61;100.00;100146.31;6240964;23;20001;-89
2023/04/03 05:21:39;;;;;;;13.23;3.67;;;;;;;9.36;100.00;100149.81;6210274;23;19912;-89
2023/04/03 05:24:10;;;;;;;8.82;3.65;;;;;;;9.71;100.00;100148.69;6211399;23;20005;-87
2023/04/03 05:26:39;;;;;;;15.05;3.88;;;;;;;9.67;100.00;100153.50;6189547;23;20008;-87
2023/04/03 05:29:06;;;;;;;9.20;3.90;;;;;;;10.47;100.00;100150.94;6210978;23;20013;-86
2023/04/03 05:31:31;;;;;;;10.80;3.95;;;;;;;9.98;100.00;100163.38;6211600;23;20013;-86
2023/04/03 05:34:05;;;;;;;15.02;4.43;;;;;;;10.35;100.00;100161.03;6210532;23;20047;-87
2023/04/03 05:36:33;;;;;;;14.80;3.72;;;;;;;10.54;97.86;100158.00;6211350;23;20023;-88
2023/04/03 05:39:03;;;;;;;9.90;3.95;;;;;;;10.25;100.00;100173.63;6185418;23;20017;-88
2023/04/03 05:41:30;;;;;;;14.68;4.18;;;;;;;10.29;97.65;100167.03;6238436;22;20005;-86
2023/04/03 05:43:56;;;;;;;9.15;4.45;;;;;;;11.14;87.81;100175.97;6229913;23;20015;-84
2023/04/03 05:46:23;;;;;;;12.57;4.47;;;;;;;10.74;89.62;100175.16;6199593;23;20017;-87
2023/04/03 05:48:52;;;;;;;11.38;4.15;;;;;;;11.16;86.17;100176.63;6198733;23;20400;-86
2023/04/03 05:51:28;;;;;;;10.25;4.10;;;;;;;11.08;86.22;100171.38;6206880;23;20486;-87
2023/04/03 05:54:07;;;;;;;16.13;4.50;;;;;;;11.90;80.03;100178.63;6199381;23;20013;-87
2023/04/03 05:56:32;;;;;;;8.80;3.22;;;;;;;11.73;80.21;100175.28;6204068;23;20100;-86
2023/04/03 05:58:58;;;;;;;8.27;3.72;;;;;;;12.08;77.61;100175.66;6205954;23;20016;-87
2023/04/03 06:01:24;;;;;;;9.93;3.30;;;;;;;12.25;76.01;100179.81;6204358;23;20013;-87
2023/04/03 06:03:50;;;;;;;13.13;4.35;;;;;;;12.35;74.36;100185.69;6194784;23;20060;-87
2023/04/03 06:06:16;;;;;;;7.35;3.20;;;;;;;12.62;75.17;100184.25;6201634;23;20017;-86
2023/04/03 06:08:41;;;;;;;5.97;3.70;;;;;;;13.08;71.26;100185.66;6237176;23;20492;-87
2023/04/03 06:11:08;;;;;;;7.72;3.80;;;;;;;12.98;70.64;100194.94;6200934;23;20429;-90
2023/04/03 06:13:35;;;;;;;9.88;3.58;;;;;;;12.84;71.53;100200.09;6203655;23;20017;-89
2023/04/03 06:16:02;;;;;;;8.70;4.00;;;;;;;13.34;68.91;100209.13;6197624;23;20037;-89
2023/04/03 06:18:31;;;;;;;8.73;4.03;;;;;;;13.79;67.86;100199.97;6224352;23;20005;-88
2023/04/03 06:20:57;;;;;;;8.55;3.28;;;;;;;15.22;60.31;100209.16;6224702;23;20019;-88
2023/04/03 06:23:23;;;;;;;7.43;3.75;;;;;;;14.84;60.75;100198.97;6225623;23;20430;-88
2023/04/03 06:25:49;;;;;;;5.43;3.33;;;;;;;14.48;61.61;100201.78;6228765;23;20009;-91
2023/04/03 06:28:14;;;;;;;6.57;2.92;;;;;;;14.45;62.45;100201.34;6199158;23;20013;-84
2023/04/03 06:30:40;;;;;;;7.60;3.05;;;;;;;14.12;62.97;100202.94;6231454;23;20063;-83
2023/04/03 06:33:06;;;;;;;7.28;2.95;;;;;;;14.47;62.81;100207.34;6229654;23;20467;-87
2023/04/03 06:35:34;;;;;;;8.27;3.10;;;;;;;14.97;61.75;100207.03;6219069;23;20004;-88
2023/04/03 06:38:00;;;;;;;6.57;3.20;;;;;;;15.45;59.29;100209.66;6218553;23;20008;-86
2023/04/03 06:40:26;;;;;;;10.50;3.17;;;;;;;17.19;54.40;100212.72;6219865;23;20015;-89
2023/04/03 06:42:52;;;;;;;8.20;3.35;;;;;;;18.69;47.28;100223.47;6219464;23;20031;-87
2023/04/03 06:45:22;;;;;;;6.00;3.33;;;;;;;18.35;47.35;100226.66;6191327;23;20040;-87
2023/04/03 06:47:47;;;;;;;12.73;4.40;;;;;;;18.20;46.91;100223.44;6220980;23;20009;-86
2023/04/03 06:50:14;;;;;;;12.70;4.18;;;;;;;18.77;46.62;100225.84;6221291;23;20007;-84
2023/04/03 06:52:41;;;;;;;12.98;4.03;;;;;;;18.61;46.72;100221.06;6221855;23;20009;-89
2023/04/03 06:55:07;;;;;;;10.90;4.18;;;;;;;18.80;45.79;100229.94;6219051;23;20047;-86
2023/04/03 06:57:32;;;;;;;6.63;3.50;;;;;;;17.65;47.83;100231.28;6216891;23;20019;-87
2023/04/03 06:59:58;;;;;;;8.07;3.75;;;;;;;17.96;47.95;100228.56;6199357;23;20036;-86
2023/04/03 07:02:23;;;;;;;8.35;3.90;;;;;;;17.36;50.91;100231.81;6188465;23;20407;-86
2023/04/03 07:04:49;;;;;;;6.65;3.90;;;;;;;17.78;49.91;100233.88;6213246;23;20016;-86
2023/04/03 07:07:17;;;;;;;12.65;3.90;;;;;;;18.02;49.03;100238.47;6212944;23;20012;-88
2023/04/03 07:09:43;;;;;;;9.80;3.70;;;;;;;18.53;47.43;100230.22;6214055;23;20000;-87
2023/04/03 07:12:08;;;;;;;7.28;4.30;;;;;;;17.43;51.99;100227.25;6211364;23;20013;-89
2023/04/03 07:14:34;;;;;;;9.10;4.45;;;;;;;19.29;46.13;100235.16;6212127;23;20012;-87
2023/04/03 07:16:59;;;;;;;8.55;4.57;;;;;;;17.69;51.36;100232.50;6213047;23;20423;-86
2023/04/03 07:19:27;;;;;;;10.77;5.35;;;;;;;18.40;49.57;100229.47;6214324;23;20443;-88
2023/04/03 07:21:53;;;;;;;13.63;4.57;;;;;;;18.49;50.28;100233.53;6213732;23;20005;-89
2023/04/03 07:24:19;;;;;;;6.97;4.68;;;;;;;19.27;47.01;100231.06;6213296;23;20012;-90
2023/04/03 07:26:49;;;;;;;15.48;5.43;;;;;;;19.24;48.85;100226.16;6215209;23;20013;-91
2023/04/03 07:29:15;;;;;;;9.93;5.57;;;;;;;19.53;47.17;100220.00;6214927;23;20012;-89
2023/04/03 07:31:41;;;;;;;10.15;6.75;;;;;;;18.80;48.83;100236.16;6215665;23;20008;-92
2023/04/03 07:34:07;;;;;;;11.23;5.82;;;;;;;18.57;51.23;100226.03;6216390;23;19996;-88
2023/04/03 07:36:35;;;;;;;10.98;6.65;;;;;;;18.64;51.96;100227.84;6212754;23;20013;-90
2023/04/03 07:39:01;;;;;;;11.52;7.03;;;;;;;19.14;49.63;100232.06;6207670;23;20008;-91
2023/04/03 07:41:28;;;;;;;15.35;7.25;;;;;;;19.57;47.92;100237.31;6214202;23;20056;-90
2023/04/03 07:43:54;;;;;;;14.15;6.85;;;;;;;18.94;51.00;100234.97;6187546;23;20107;-86
2023/04/03 07:46:20;;;;;;;13.05;6.60;;;;;;;19.33;49.33;100235.53;6185660;23;20347;-89
2023/04/03 07:48:46;;;;;;;13.32;6.47;;;;;;;20.11;49.04;100237.16;6213381;23;19996;-91
2023/04/03 07:51:12;;;;;;;12.57;7.38;;;;;;;20.02;47.85;100243.91;6213404;23;20024;-87
2023/04/03 07:53:38;;;;;;;12.60;7.07;;;;;;;20.19;47.93;100241.38;6212932;23;20013;-89
2023/04/03 07:56:04;;;;;;;9.50;7.53;;;;;;;20.41;48.96;100244.38;6212177;23;20012;-87
2023/04/03 07:58:30;;;;;;;12.25;7.20;;;;;;;20.58;48.90;100242.63;6211514;23;20005;-86
2023/04/03 08:00:56;;;;;;;10.32;6.88;;;;;;;21.24;46.36;100244.09;6212393;23;20036;-88
2023/04/03 08:03:22;;;;;;;11.68;6.90;;;;;;;21.98;44.07;100257.44;6211281;23;20013;-87
2023/04/03 08:05:49;;;;;;;10.65;7.25;;;;;;;20.93;47.16;100253.38;6211554;23;20009;-86
2023/04/03 08:08:19;;;;;;;11.20;7.45;;;;;;;19.78;51.60;100244.91;6209645;23;20016;-87
2023/04/03 08:10:51;;;;;;;15.57;8.43;;;;;;;19.67;52.94;100245.66;6211443;23;20009;-82
2023/04/03 08:13:18;;;;;;;13.70;7.60;;;;;;;19.86;51.93;100247.25;6191166;23;20381;-87
2023/04/03 08:15:44;;;;;;;16.00;7.90;;;;;;;19.27;53.75;100244.50;6218298;23;20335;-89
2023/04/03 08:18:10;;;;;;;20.08;8.38;;;;;;;18.67;58.23;100236.28;6214601;23;20013;-88
2023/04/03 08:20:38;;;;;;;13.13;8.27;;;;;;;19.12;56.65;100238.69;6215088;23;20020;-86
2023/04/03 08:23:03;;;;;;;10.35;7.97;;;;;;;19.05;56.06;100239.59;6171525;23;20050;-87
2023/04/03 08:25:30;;;;;;;16.38;7.70;;;;;;;19.58;55.05;100234.44;6233637;23;20008;-85
2023/04/03 08:27:56;;;;;;;15.07;7.18;;;;;;;19.35;55.46;100244.22;6193906;23;20009;-87
2023/04/03 08:30:21;;;;;;;15.40;6.47;;;;;;;19.78;53.68;100250.28;6215087;23;20023;-87
2023/04/03 08:32:47;;;;;;;11.32;7.00;;;;;;;19.01;56.22;100238.41;6160963;23;20112;-86
2023/04/03 08:35:13;;;;;;;11.52;7.53;;;;;;;18.51;59.46;100235.00;6211547;23;20462;-87
2023/04/03 08:37:39;;;;;;;12.95;7.60;;;;;;;18.33;61.33;100244.81;6185131;23;20447;-85
2023/04/03 08:45:47;;;;;;;14.35;7.45;;;;;;;18.60;60.90;100235.50;6210471;22;20094;-83
2023/04/03 08:48:24;;;;;;;16.90;7.25;;;;;;;19.57;56.93;100242.69;6187786;23;20337;-81
2023/04/03 08:50:58;;;;;;;11.27;7.28;;;;;;;18.95;59.55;100247.34;6219679;23;20028;-84
2023/04/03 08:53:32;;;;;;;9.88;6.78;;;;;;;18.55;61.06;100233.50;6219327;23;20432;-84
2023/04/03 08:55:58;;;;;;;11.85;7.55;;;;;;;18.49;62.51;100233.53;6218356;23;20012;-83
2023/04/03 08:58:34;;;;;;;15.68;7.57;;;;;;;18.02;64.63;100235.78;6220569;23;20035;-86
2023/04/03 09:01:12;;;;;;;11.40;6.65;;;;;;;19.08;60.66;100227.59;6219560;23;20016;-84
2023/04/03 09:03:40;;;;;;;17.17;7.15;;;;;;;19.54;59.83;100227.03;6221573;23;20040;-84
2023/04/03 09:06:24;;;;;;;11.75;6.97;;;;;;;19.15;60.17;100224.81;6186523;23;20032;-84
2023/04/03 09:09:11;;;;;;;13.75;6.00;;;;;;;19.64;58.32;100230.00;6193636;23;20095;-86
2023/04/03 09:11:55;;;;;;;10.27;7.53;;;;;;;19.03;61.22;100220.19;6214242;23;20348;-87
2023/04/03 09:14:39;;;;;;;11.70;7.30;;;;;;;19.59;62.37;100224.47;6213257;23;20047;-86
2023/04/03 09:17:22;;;;;;;13.63;7.68;;;;;;;19.50;59.66;100228.53;6162894;23;20321;-83
2023/04/03 09:20:09;;;;;;;11.07;7.05;;;;;;;19.78;58.98;100228.78;6198665;23;20009;-87
2023/04/03 09:22:41;;;;;;;9.02;6.32;;;;;;;19.17;59.19;100222.72;6197294;23;20020;-86
2023/04/03 09:25:18;;;;;;;10.93;6.88;;;;;;;18.95;61.15;100233.94;6219667;23;20063;-87
2023/04/03 09:27:45;;;;;;;10.95;5.88;;;;;;;19.07;59.80;100220.56;6191534;23;20103;-88
2023/04/03 09:30:16;;;;;;;15.02;6.70;;;;;;;18.73;62.07;100230.00;6220170;23;20003;-86
2023/04/03 09:32:45;;;;;;;12.75;6.78;;;;;;;19.00;61.89;100214.44;6219859;23;20009;-85
2023/04/03 09:35:14;;;;;;;9.35;6.35;;;;;;;19.53;60.30;100214.63;6216895;23;20008;-85
2023/04/03 09:37:45;;;;;;;11.38;6.60;;;;;;;20.29;58.85;100227.38;6193593;23;20043;-85
2023/04/03 09:40:26;;;;;;;8.88;5.88;;;;;;;20.17;56.73;100211.19;6220011;23;20035;-87
2023/04/03 09:42:54;;;;;;;9.25;6.47;;;;;;;20.40;54.90;100218.50;6221173;23;20028;-88
2023/04/03 09:45:24;;;;;;;11.20;6.07;;;;;;;20.11;57.20;100218.31;6193304;23;20394;-90
2023/04/03 09:48:05;;;;;;;8.20;4.93;;;;;;;20.60;53.56;100216.28;6190970;23;20040;-89
2023/04/03 09:50:37;;;;;;;5.88;4.05;;;;;;;20.23;52.18;100220.19;6190439;23;20031;-90
2023/04/03 09:53:25;;;;;;;8.48;4.63;;;;;;;19.78;55.37;100207.25;6217735;23;20012;-90
2023/04/03 09:55:50;;;;;;;15.77;4.82;;;;;;;20.39;53.95;100206.06;6186848;23;20029;-88
2023/04/03 09:58:43;;;;;;;6.35;4.80;;;;;;;19.80;54.68;100196.25;6187611;23;20020;-88
2023/04/03 10:01:31;;;;;;;8.70;4.47;;;;;;;18.80;58.63;100203.91;6218893;23;20060;-90
2023/04/03 10:04:06;;;;;;;7.07;5.07;;;;;;;18.28;60.62;100193.69;6166119;23;20095;-88
2023/04/03 10:06:35;;;;;;;6.78;5.10;;;;;;;18.51;60.53;100188.53;6211181;23;20016;-88
2023/04/03 10:09:05;;;;;;;8.63;4.60;;;;;;;18.88;58.26;100189.38;6212735;23;20088;-90
2023/04/03 10:11:30;;;;;;;3.88;2.90;;;;;;;19.43;52.92;100192.84;6186125;23;20009;-91
2023/04/03 10:14:21;;;;;;;7.10;3.00;;;;;;;19.83;52.17;100203.84;6194562;23;21271;-89
2023/04/03 10:17:03;;;;;;;5.03;3.28;;;;;;;20.23;50.15;100194.09;6219490;23;20356;-91
2023/04/03 10:20:20;;;;;;;5.20;3.17;;;;;;;20.05;51.16;100192.31;6164791;23;20079;-87
2023/04/03 10:23:04;;;;;;;5.63;3.58;;;;;;;19.57;53.76;100194.31;6175349;23;20265;-90
2023/04/03 10:26:10;;;;;;;6.03;3.38;;;;;;;18.10;55.68;100188.28;6219381;23;20008;-91
2023/04/03 10:29:11;;;;;;;5.85;3.40;;;;;;;18.39;55.96;100179.56;6195914;23;20039;-89
2023/04/03 10:31:55;;;;;;;6.35;3.80;;;;;;;19.62;52.46;100186.38;6215754;23;20020;-86
2023/04/03 10:34:38;;;;;;;6.50;3.13;;;;;;;19.67;51.14;100177.63;6189230;23;20009;-84
2023/04/03 10:37:13;;;;;;;4.00;2.20;;;;;;;19.33;50.18;100185.31;6209976;23;20021;-87
2023/04/03 10:40:02;;;;;;;5.25;3.25;;;;;;;19.74;51.27;100179.19;6171282;23;20021;-88
2023/04/03 10:42:44;;;;;;;5.57;3.10;;;;;;;19.63;52.33;100166.50;6217276;23;20009;-89
2023/04/03 10:45:43;;;;;;;;;;;;;;;19.53;51.32;100171.63;6222924;23;20027;-91
2023/04/03 10:48:22;;;;;;;3.33;2.45;;;;;;;19.48;49.63;100182.25;6195577;23;19987;-90
2023/04/03 10:54:23;;;;;;;3.67;3.00;;;;;;;18.69;51.77;100163.59;6217723;23;20031;-91
2023/04/03 10:56:57;;;;;;;5.88;3.65;;;;;;;18.76;53.20;100151.72;6208743;22;20151;-90
2023/04/03 10:59:58;;;;;;;6.75;3.38;;;;;;;20.22;47.60;100159.38;6172416;23;20401;-88
2023/04/03 11:02:31;;;;;;;5.25;2.80;;;;;;;20.57;45.31;100162.91;6106311;23;20351;-88
2023/04/03 11:05:30;;;;;;;4.93;2.88;;;;;;;18.48;50.97;100154.06;6137444;23;20263;-88
2023/04/03 11:08:26;;;;;;;5.80;3.13;;;;;;;19.61;47.92;100141.72;6140936;23;20025;-87
2023/04/03 11:11:02;;;;;;;3.97;2.90;;;;;;;19.59;47.44;100143.81;6111400;23;20033;-91
2023/04/03 11:14:06;;;;;;;4.70;3.10;;;;;;;19.57;47.93;100149.44;6183473;23;20447;-90
2023/04/03 11:16:46;;;;;;;6.65;3.45;;;;;;;19.72;49.35;100140.13;6202253;23;20008;-89
2023/04/03 11:19:21;;;;;;;3.80;2.90;;;;;;;19.94;47.77;100136.66;6186730;23;20039;-88
2023/04/03 11:25:52;;;;;;;5.18;3.03;;;;;;;17.72;54.28;100132.88;6216531;23;20035;-91
2023/04/03 11:28:20;;;;;;;5.45;3.10;;;;;;;18.73;51.12;100111.88;6224000;23;20016;-90
2023/04/03 11:34:06;;;;;;;5.95;2.53;;;;;;;20.18;46.23;100128.59;6235504;22;20035;-93
2023/04/03 11:36:45;;;;;;;4.30;2.53;;;;;;;19.04;49.68;100109.03;6211641;23;20024;-92
2023/04/03 11:39:58;;;;;;;4.43;2.40;;;;;;;19.16;51.52;100106.38;6184954;23;20016;-92
2023/04/03 11:42:42;;;;;;;7.88;3.92;;;;;;;20.05;51.58;100103.53;6206007;23;20064;-90
2023/04/03 11:45:29;;;;;;;7.45;4.18;;;;;;;20.85;50.74;100121.72;6227256;23;20020;-88
2023/04/03 11:48:11;;;;;;;6.28;3.28;;;;;;;19.95;51.91;100105.19;6229223;22;20100;-86
2023/04/03 11:50:52;;;;;;;7.63;3.83;;;;;;;20.90;49.47;100117.28;6234898;22;20016;-85
2023/04/03 11:53:28;;;;;;;12.05;3.65;;;;;;;20.06;50.90;100102.50;6164101;23;20013;-90
2023/04/03 11:55:57;;;;;;;9.13;3.83;;;;;;;19.33;53.30;100114.59;6220185;23;20011;-91